createdAt,value
2018-12-17T00:02:26.412Z,76.69
2018-12-17T00:04:55.476Z,76.70
2018-12-17T00:07:24.566Z,76.70
2018-12-17T00:09:53.636Z,76.76
2018-12-17T00:12:22.766Z,76.67
2018-12-17T00:14:51.934Z,76.73
2018-12-17T00:17:20.989Z,76.71
2018-12-17T00:19:50.282Z,76.82
2018-12-17T00:22:19.158Z,76.65
2018-12-17T00:24:48.238Z,76.86
2018-12-17T00:27:17.263Z,76.67
2018-12-17T00:29:46.376Z,76.67
2018-12-17T00:32:15.405Z,76.42
2018-12-17T00:34:44.472Z,76.54
2018-12-17T00:37:13.541Z,76.66
2018-12-17T00:39:42.621Z,76.68
2018-12-17T00:42:11.650Z,76.73
2018-12-17T00:44:40.993Z,76.88
2018-12-17T00:47:10.047Z,76.87
2018-12-17T00:49:39.108Z,77.01
2018-12-17T00:52:08.188Z,77.13
2018-12-17T00:54:37.270Z,77.18
2018-12-17T00:57:06.297Z,77.10
2018-12-17T00:59:35.644Z,77.17
2018-12-17T01:02:04.708Z,77.06
2018-12-17T01:04:33.778Z,77.18
2018-12-17T01:07:02.842Z,77.12
2018-12-17T01:09:31.921Z,77.12
2018-12-17T01:12:00.953Z,77.15
2018-12-17T01:14:30.091Z,77.06
2018-12-17T01:16:59.119Z,77.10
2018-12-17T01:19:28.401Z,76.93
2018-12-17T01:21:57.240Z,76.80
2018-12-17T01:24:26.314Z,76.65
2018-12-17T01:26:55.350Z,76.83
2018-12-17T01:29:24.466Z,76.83
2018-12-17T01:31:53.498Z,76.64
2018-12-17T01:34:22.580Z,76.37
2018-12-17T01:36:51.683Z,76.19
2018-12-17T01:39:20.766Z,75.83
2018-12-17T01:41:49.798Z,75.88
2018-12-17T01:44:18.907Z,75.77
2018-12-17T01:46:47.939Z,75.87
2018-12-17T01:49:17.014Z,75.47
2018-12-17T01:51:46.094Z,75.41
2018-12-17T01:54:15.170Z,75.42
2018-12-17T01:56:44.205Z,75.72
2018-12-17T01:59:13.304Z,75.60
2018-12-17T02:01:42.337Z,75.29
2018-12-17T02:04:11.623Z,75.31
2018-12-17T02:06:40.486Z,75.21
2018-12-17T02:09:09.613Z,75.32
2018-12-17T02:11:38.644Z,75.14
2018-12-17T02:14:07.784Z,75.27
2018-12-17T02:16:36.884Z,75.54
2018-12-17T02:19:05.960Z,75.38
2018-12-17T02:21:35.024Z,75.59
2018-12-17T02:24:04.180Z,75.58
2018-12-17T02:26:33.133Z,75.74
2018-12-17T02:29:02.234Z,75.60
2018-12-17T02:31:31.290Z,75.70
2018-12-17T02:34:00.349Z,75.79
2018-12-17T02:36:29.475Z,75.73
2018-12-17T02:38:58.567Z,75.78
2018-12-17T02:41:27.601Z,75.74
2018-12-17T02:43:56.702Z,75.68
2018-12-17T02:46:25.741Z,75.79
2018-12-17T02:48:55.038Z,75.86
2018-12-17T02:51:23.884Z,75.72
2018-12-17T02:53:52.955Z,75.81
2018-12-17T02:56:21.975Z,75.92
2018-12-17T02:58:51.371Z,75.95
2018-12-17T03:01:20.203Z,75.83
2018-12-17T03:03:49.267Z,75.66
2018-12-17T03:06:18.319Z,75.67
2018-12-17T03:08:47.590Z,75.76
2018-12-17T03:11:16.412Z,75.76
2018-12-17T03:13:45.524Z,75.77
2018-12-17T03:16:15.572Z,75.66
2018-12-17T03:18:44.650Z,75.55
2018-12-17T03:21:13.758Z,75.57
2018-12-17T03:23:42.794Z,75.52
2018-12-17T03:26:11.848Z,75.60
2018-12-17T03:28:40.933Z,75.62
2018-12-17T03:31:10.003Z,75.57
2018-12-17T03:33:39.069Z,75.57
2018-12-17T03:36:08.152Z,75.53
2018-12-17T03:38:37.205Z,75.32
2018-12-17T03:41:06.264Z,75.27
2018-12-17T03:43:35.364Z,75.10
2018-12-17T03:46:04.427Z,74.51
2018-12-17T03:48:33.483Z,74.23
2018-12-17T03:51:02.564Z,74.02
2018-12-17T03:53:31.617Z,74.12
2018-12-17T03:56:00.661Z,74.08
2018-12-17T03:58:29.744Z,74.03
2018-12-17T04:00:58.792Z,74.18
2018-12-17T04:03:27.858Z,74.16
2018-12-17T04:05:56.974Z,74.07
2018-12-17T04:08:26.038Z,74.01
2018-12-17T04:10:55.101Z,74.06
2018-12-17T04:13:24.200Z,74.09
2018-12-17T04:15:53.257Z,73.80
2018-12-17T04:18:22.310Z,73.72
2018-12-17T04:20:51.394Z,73.71
2018-12-17T04:23:20.450Z,73.66
2018-12-17T04:25:49.517Z,73.90
2018-12-17T04:28:18.666Z,74.06
2018-12-17T04:30:47.727Z,74.12
2018-12-17T04:33:16.785Z,73.82
2018-12-17T04:35:45.867Z,73.89
2018-12-17T04:38:14.929Z,74.01
2018-12-17T04:40:43.981Z,74.06
2018-12-17T04:43:13.066Z,74.01
2018-12-17T04:45:42.116Z,74.26
2018-12-17T04:48:11.181Z,74.32
2018-12-17T04:50:40.380Z,74.52
2018-12-17T04:53:09.442Z,74.54
2018-12-17T04:55:38.493Z,74.40
2018-12-17T04:58:07.794Z,74.45
2018-12-17T05:00:36.847Z,74.49
2018-12-17T05:03:05.908Z,74.56
2018-12-17T05:05:35.011Z,74.30
2018-12-17T05:08:04.053Z,74.24
2018-12-17T05:10:33.113Z,74.18
2018-12-17T05:13:02.213Z,74.31
2018-12-17T05:15:31.317Z,74.41
2018-12-17T05:18:00.328Z,74.49
2018-12-17T05:20:29.439Z,74.19
2018-12-17T05:22:58.494Z,74.46
2018-12-17T05:25:27.558Z,74.40
2018-12-17T05:27:56.640Z,74.37
2018-12-17T05:30:25.708Z,74.32
2018-12-17T05:32:54.758Z,74.34
2018-12-17T05:35:23.887Z,74.44
2018-12-17T05:37:52.951Z,74.54
2018-12-17T05:40:22.002Z,74.56
2018-12-17T05:42:51.097Z,74.34
2018-12-17T05:45:20.313Z,74.32
2018-12-17T05:47:49.378Z,74.18
2018-12-17T05:50:18.453Z,73.95
2018-12-17T05:52:47.510Z,73.90
2018-12-17T05:55:16.594Z,74.00
2018-12-17T05:57:45.890Z,74.18
2018-12-17T06:00:14.944Z,74.23
2018-12-17T06:02:44.006Z,74.10
2018-12-17T06:05:13.410Z,73.39
2018-12-17T06:07:42.450Z,73.18
2018-12-17T06:10:11.509Z,72.99
2018-12-17T06:12:40.586Z,73.18
2018-12-17T06:15:09.662Z,73.08
2018-12-17T06:17:38.708Z,72.80
2018-12-17T06:20:07.839Z,72.38
2018-12-17T06:22:36.892Z,72.81
2018-12-17T06:25:05.967Z,72.90
2018-12-17T06:27:37.095Z,72.37
2018-12-17T06:30:04.111Z,72.70
2018-12-17T06:32:33.135Z,72.81
2018-12-17T06:35:02.243Z,72.80
2018-12-17T06:37:31.279Z,72.84
2018-12-17T06:40:00.337Z,72.83
2018-12-17T06:42:29.840Z,72.84
2018-12-17T06:44:58.901Z,73.04
2018-12-17T06:47:28.346Z,72.95
2018-12-17T06:49:57.442Z,72.63
2018-12-17T06:52:26.495Z,72.14
2018-12-17T06:54:55.553Z,71.66
2018-12-17T06:57:24.640Z,71.18
2018-12-17T06:59:53.704Z,71.12
2018-12-17T07:02:22.755Z,71.16
2018-12-17T07:04:51.852Z,71.33
2018-12-17T07:07:20.922Z,71.46
2018-12-17T07:09:49.982Z,71.74
2018-12-17T07:12:19.071Z,71.90
2018-12-17T07:14:48.131Z,72.03
2018-12-17T07:17:17.207Z,72.14
2018-12-17T07:19:46.297Z,72.36
2018-12-17T07:22:15.383Z,72.15
2018-12-17T07:24:44.445Z,71.95
2018-12-17T07:27:13.540Z,72.00
2018-12-17T07:29:49.559Z,72.07
2018-12-17T07:32:11.665Z,72.33
2018-12-17T07:34:40.758Z,72.50
2018-12-17T07:37:09.823Z,72.57
2018-12-17T07:39:38.890Z,72.83
2018-12-17T07:42:07.981Z,72.95
2018-12-17T07:44:37.047Z,73.04
2018-12-17T07:47:06.109Z,73.08
2018-12-17T07:49:35.217Z,73.09
2018-12-17T07:52:04.275Z,72.95
2018-12-17T07:54:33.330Z,72.98
2018-12-17T07:57:02.409Z,72.99
2018-12-17T07:59:31.466Z,73.03
2018-12-17T08:02:00.530Z,73.08
2018-12-17T08:04:29.615Z,72.97
2018-12-17T08:06:58.672Z,72.72
2018-12-17T08:09:27.723Z,72.17
2018-12-17T08:11:56.822Z,71.97
2018-12-17T08:14:25.879Z,71.71
2018-12-17T08:16:54.940Z,71.85
2018-12-17T08:19:24.029Z,72.10
2018-12-17T08:21:53.091Z,72.06
2018-12-17T08:24:22.145Z,72.27
2018-12-17T08:26:51.259Z,72.19
2018-12-17T08:29:20.615Z,72.04
2018-12-17T08:31:49.657Z,72.11
2018-12-17T08:34:19.004Z,72.11
2018-12-17T08:36:48.052Z,71.93
2018-12-17T08:39:17.141Z,72.15
2018-12-17T08:41:46.186Z,71.85
2018-12-17T08:44:15.243Z,71.84
2018-12-17T08:46:44.288Z,71.57
2018-12-17T08:49:13.376Z,71.92
2018-12-17T08:51:42.433Z,71.40
2018-12-17T08:54:11.501Z,71.07
2018-12-17T08:56:40.607Z,70.71
2018-12-17T08:59:09.669Z,70.86
2018-12-17T09:01:38.729Z,70.56
2018-12-17T09:04:07.817Z,70.65
2018-12-17T09:06:36.866Z,70.54
2018-12-17T09:09:05.952Z,70.60
2018-12-17T09:11:35.037Z,70.61
2018-12-17T09:14:04.094Z,70.56
2018-12-17T09:16:33.159Z,70.55
2018-12-17T09:19:02.281Z,70.69
2018-12-17T09:21:31.336Z,70.22
2018-12-17T09:24:00.400Z,70.48
2018-12-17T09:26:29.486Z,69.95
2018-12-17T09:28:58.541Z,70.10
2018-12-17T09:31:27.670Z,70.29
2018-12-17T09:33:56.685Z,70.61
2018-12-17T09:36:26.735Z,70.69
2018-12-17T09:38:55.773Z,70.75
2018-12-17T09:41:24.890Z,70.98
2018-12-17T09:43:53.932Z,70.86
2018-12-17T09:46:23.011Z,71.07
2018-12-17T09:48:52.067Z,71.17
2018-12-17T09:51:21.155Z,71.24
2018-12-17T09:53:50.196Z,71.38
2018-12-17T09:56:19.507Z,71.38
2018-12-17T09:58:48.336Z,71.34
2018-12-17T10:01:17.417Z,71.17
2018-12-17T10:03:46.526Z,71.17
2018-12-17T10:06:15.597Z,70.67
2018-12-17T10:08:44.633Z,70.62
2018-12-17T10:11:13.734Z,70.75
2018-12-17T10:13:42.777Z,70.83
2018-12-17T10:16:11.841Z,70.98
2018-12-17T10:18:40.905Z,70.81
2018-12-17T10:21:09.977Z,70.82
2018-12-17T10:23:39.247Z,70.59
2018-12-17T10:26:08.350Z,70.95
2018-12-17T10:28:37.689Z,71.13
2018-12-17T10:31:06.741Z,71.03
2018-12-17T10:33:35.903Z,70.96
2018-12-17T10:36:04.973Z,70.87
2018-12-17T10:38:34.003Z,70.66
2018-12-17T10:41:03.117Z,70.83
2018-12-17T10:43:32.151Z,70.65
2018-12-17T10:46:01.220Z,70.80
2018-12-17T10:48:30.294Z,71.08
2018-12-17T10:50:59.371Z,71.10
2018-12-17T10:53:28.414Z,71.05
2018-12-17T10:55:57.724Z,70.88
2018-12-17T10:58:26.547Z,71.08
2018-12-17T11:01:01.237Z,70.81
2018-12-17T11:03:30.278Z,70.80
2018-12-17T11:05:59.334Z,70.64
2018-12-17T11:08:28.613Z,70.83
2018-12-17T11:10:57.661Z,71.08
2018-12-17T11:13:26.717Z,71.00
2018-12-17T11:15:55.805Z,70.83
2018-12-17T11:18:24.869Z,71.00
2018-12-17T11:20:53.931Z,70.87
2018-12-17T11:23:23.018Z,70.67
2018-12-17T11:25:52.076Z,70.53
2018-12-17T11:28:21.228Z,70.73
2018-12-17T11:30:50.340Z,70.68
2018-12-17T11:33:19.402Z,70.87
2018-12-17T11:35:48.465Z,70.77
2018-12-17T11:38:17.556Z,70.70
2018-12-17T11:40:46.608Z,70.53
2018-12-17T11:43:15.671Z,70.69
2018-12-17T11:45:44.756Z,70.58
2018-12-17T11:48:13.815Z,70.68
2018-12-17T11:50:42.869Z,70.00
2018-12-17T11:53:11.993Z,70.23
2018-12-17T11:55:41.054Z,70.37
2018-12-17T11:58:10.128Z,70.40
2018-12-17T12:00:39.226Z,70.26
2018-12-17T12:03:08.282Z,70.44
2018-12-17T12:05:37.344Z,70.54
2018-12-17T12:08:06.434Z,70.76
2018-12-17T12:10:35.486Z,70.76
2018-12-17T12:13:04.555Z,70.79
2018-12-17T12:15:33.685Z,70.91
2018-12-17T12:18:02.751Z,70.92
2018-12-17T12:20:31.807Z,70.80
2018-12-17T12:23:00.899Z,70.89
2018-12-17T12:25:29.965Z,70.85
2018-12-17T12:27:59.015Z,70.98
2018-12-17T12:30:28.096Z,70.89
2018-12-17T12:32:57.164Z,70.90
2018-12-17T12:35:26.224Z,71.00
2018-12-17T12:37:55.360Z,71.16
2018-12-17T12:40:24.409Z,71.16
2018-12-17T12:42:53.465Z,71.08
2018-12-17T12:45:22.569Z,71.26
2018-12-17T12:47:51.625Z,71.19
2018-12-17T12:50:20.686Z,71.11
2018-12-17T12:52:49.871Z,70.95
2018-12-17T12:55:18.938Z,70.86
2018-12-17T12:57:48.000Z,70.72
2018-12-17T13:00:17.088Z,70.55
2018-12-17T13:02:46.144Z,70.88
2018-12-17T13:05:15.220Z,70.80
2018-12-17T13:07:44.326Z,70.71
2018-12-17T13:10:13.414Z,70.83
2018-12-17T13:12:42.445Z,70.72
2018-12-17T13:15:11.768Z,70.63
2018-12-17T13:17:40.615Z,70.64
2018-12-17T13:20:09.677Z,70.43
2018-12-17T13:22:38.897Z,70.73
2018-12-17T13:25:07.969Z,70.97
2018-12-17T13:27:37.039Z,71.41
2018-12-17T13:30:06.147Z,71.58
2018-12-17T13:32:35.215Z,71.54
2018-12-17T13:35:04.375Z,71.63
2018-12-17T13:37:33.458Z,71.83
2018-12-17T13:40:02.534Z,71.95
2018-12-17T13:42:31.606Z,71.83
2018-12-17T13:45:00.713Z,71.29
2018-12-17T13:47:29.768Z,71.43
2018-12-17T13:49:58.818Z,71.45
2018-12-17T13:52:33.606Z,71.47
2018-12-17T13:55:02.447Z,71.31
2018-12-17T13:57:31.502Z,71.55
2018-12-17T14:00:00.622Z,71.53
2018-12-17T14:02:29.680Z,71.36
2018-12-17T14:04:58.744Z,71.54
2018-12-17T14:07:27.960Z,71.59
2018-12-17T14:10:02.419Z,71.59
2018-12-17T14:12:31.506Z,71.61
2018-12-17T14:15:00.582Z,71.69
2018-12-17T14:17:35.241Z,71.77
2018-12-17T14:20:09.897Z,71.96
2018-12-17T14:22:39.017Z,72.10
2018-12-17T14:25:08.073Z,71.95
2018-12-17T14:27:37.175Z,71.93
2018-12-17T14:30:06.489Z,72.05
2018-12-17T14:32:35.549Z,71.91
2018-12-17T14:35:04.614Z,72.12
2018-12-17T14:37:33.710Z,72.32
2018-12-17T14:40:02.760Z,72.40
2018-12-17T14:42:31.814Z,72.30
2018-12-17T14:45:00.924Z,72.24
2018-12-17T14:47:29.982Z,72.15
2018-12-17T14:49:59.073Z,72.25
2018-12-17T14:52:28.172Z,72.51
2018-12-17T14:54:57.240Z,72.56
2018-12-17T14:57:26.296Z,72.35
2018-12-17T14:59:55.390Z,72.65
2018-12-17T15:02:24.452Z,72.79
2018-12-17T15:04:53.522Z,72.88
2018-12-17T15:07:22.623Z,72.74
2018-12-17T15:09:51.687Z,72.94
2018-12-17T15:12:20.771Z,73.12
2018-12-17T15:14:49.871Z,73.29
2018-12-17T15:17:18.961Z,73.23
2018-12-17T15:19:48.035Z,73.17
2018-12-17T15:22:17.222Z,73.12
2018-12-17T15:24:46.303Z,73.05
2018-12-17T15:27:15.344Z,73.01
2018-12-17T15:29:44.550Z,73.06
2018-12-17T15:32:13.613Z,72.66
2018-12-17T15:34:42.672Z,72.60
2018-12-17T15:37:11.813Z,72.54
2018-12-17T15:39:40.876Z,72.62
2018-12-17T15:42:09.944Z,72.60
2018-12-17T15:44:39.374Z,72.76
2018-12-17T15:47:08.425Z,72.83
2018-12-17T15:49:37.486Z,72.95
2018-12-17T15:52:06.820Z,73.00
2018-12-17T15:54:35.654Z,73.00
2018-12-17T15:57:04.710Z,73.17
2018-12-17T15:59:34.006Z,73.28
2018-12-17T16:02:03.061Z,73.33
2018-12-17T16:04:32.127Z,73.37
2018-12-17T16:07:01.224Z,73.38
2018-12-17T16:09:30.261Z,73.26
2018-12-17T16:11:59.354Z,73.07
2018-12-17T16:14:28.446Z,73.13
2018-12-17T16:16:57.536Z,73.38
2018-12-17T16:19:26.594Z,73.44
2018-12-17T16:21:55.692Z,73.52
2018-12-17T16:24:24.753Z,73.50
2018-12-17T16:26:53.821Z,73.55
2018-12-17T16:29:22.923Z,73.51
2018-12-17T16:31:57.256Z,73.55
2018-12-17T16:34:21.058Z,73.49
2018-12-17T16:36:50.190Z,73.37
2018-12-17T16:39:19.245Z,73.51
2018-12-17T16:41:48.300Z,73.42
2018-12-17T16:44:17.396Z,73.31
2018-12-17T16:46:46.477Z,73.38
2018-12-17T16:49:15.535Z,73.17
2018-12-17T16:51:44.620Z,73.42
2018-12-17T16:54:13.688Z,73.37
2018-12-17T16:56:42.759Z,73.40
2018-12-17T16:59:11.913Z,73.51
2018-12-17T17:01:40.983Z,73.44
2018-12-17T17:04:10.083Z,73.41
2018-12-17T17:06:40.156Z,73.32
2018-12-17T17:09:09.221Z,73.50
2018-12-17T17:11:38.294Z,73.54
2018-12-17T17:14:07.383Z,73.41
2018-12-17T17:16:36.458Z,73.29
2018-12-17T17:19:05.524Z,73.33
2018-12-17T17:21:34.623Z,73.28
2018-12-17T17:24:03.688Z,73.24
2018-12-17T17:26:33.720Z,73.25
2018-12-17T17:29:02.802Z,73.26
2018-12-17T17:31:31.858Z,73.34
2018-12-17T17:34:00.917Z,73.39
2018-12-17T17:36:31.059Z,73.37
2018-12-17T17:39:00.132Z,73.36
2018-12-17T17:41:29.187Z,73.36
2018-12-17T17:43:58.319Z,73.50
2018-12-17T17:46:27.375Z,73.58
2018-12-17T17:48:56.434Z,73.75
2018-12-17T17:51:25.532Z,73.89
2018-12-17T17:53:54.604Z,73.98
2018-12-17T17:56:24.611Z,74.02
2018-12-17T17:58:53.712Z,74.15
2018-12-17T18:01:22.792Z,74.23
2018-12-17T18:03:51.856Z,74.09
2018-12-17T18:06:20.972Z,74.04
2018-12-17T18:08:50.041Z,73.92
2018-12-17T18:11:19.108Z,73.94
2018-12-17T18:13:48.198Z,73.94
2018-12-17T18:16:18.297Z,73.84
2018-12-17T18:18:47.365Z,73.62
2018-12-17T18:21:16.461Z,73.50
2018-12-17T18:23:45.533Z,73.63
2018-12-17T18:26:14.619Z,73.76
2018-12-17T18:28:43.713Z,73.87
2018-12-17T18:31:12.784Z,73.89
2018-12-17T18:33:41.844Z,73.90
2018-12-17T18:36:10.922Z,73.96
2018-12-17T18:38:39.978Z,74.01
2018-12-17T18:41:09.045Z,74.01
2018-12-17T18:43:38.124Z,74.11
2018-12-17T18:46:07.181Z,74.18
2018-12-17T18:48:36.242Z,74.23
2018-12-17T18:51:05.367Z,74.28
2018-12-17T18:53:34.427Z,73.98
2018-12-17T18:56:03.492Z,73.99
2018-12-17T18:58:32.586Z,73.94
2018-12-17T19:01:01.654Z,73.79
2018-12-17T19:03:30.946Z,73.88
2018-12-17T19:05:59.827Z,74.00
2018-12-17T19:08:29.112Z,74.08
2018-12-17T19:10:57.939Z,74.13
2018-12-17T19:13:27.396Z,74.14
2018-12-17T19:15:56.217Z,74.14
2018-12-17T19:18:25.267Z,74.08
2018-12-17T19:20:54.349Z,74.12
2018-12-17T19:23:23.405Z,74.16
2018-12-17T19:25:52.462Z,74.28
2018-12-17T19:28:21.556Z,74.31
2018-12-17T19:30:50.857Z,74.30
2018-12-17T19:33:19.714Z,74.27
2018-12-17T19:35:48.822Z,74.26
2018-12-17T19:38:17.886Z,74.25
2018-12-17T19:40:46.960Z,74.15
2018-12-17T19:43:16.081Z,74.25
2018-12-17T19:45:45.159Z,74.39
2018-12-17T19:48:14.236Z,74.39
2018-12-17T19:50:43.579Z,74.51
2018-12-17T19:53:12.719Z,74.58
2018-12-17T19:55:41.959Z,74.61
2018-12-17T19:58:11.091Z,74.66
2018-12-17T20:00:39.933Z,74.68
2018-12-17T20:03:08.997Z,74.62
2018-12-17T20:05:38.096Z,74.53
2018-12-17T20:08:07.176Z,74.51
2018-12-17T20:10:36.236Z,74.58
2018-12-17T20:13:05.364Z,74.56
2018-12-17T20:15:34.445Z,74.62
2018-12-17T20:18:03.535Z,74.63
2018-12-17T20:20:32.642Z,74.62
2018-12-17T20:23:01.718Z,74.60
2018-12-17T20:25:30.810Z,74.63
2018-12-17T20:27:59.909Z,74.71
2018-12-17T20:30:28.994Z,74.77
2018-12-17T20:32:58.075Z,74.81
2018-12-17T20:35:27.183Z,74.86
2018-12-17T20:37:56.267Z,74.92
2018-12-17T20:40:25.327Z,74.97
2018-12-17T20:42:54.451Z,75.00
2018-12-17T20:45:23.503Z,75.08
2018-12-17T20:47:52.588Z,75.14
2018-12-17T20:50:21.712Z,75.12
2018-12-17T20:52:50.815Z,75.14
2018-12-17T20:55:19.872Z,75.24
2018-12-17T20:57:48.941Z,75.28
2018-12-17T21:00:18.017Z,75.37
2018-12-17T21:02:47.097Z,75.41
2018-12-17T21:05:16.194Z,75.46
2018-12-17T21:07:45.276Z,75.49
2018-12-17T21:10:14.344Z,75.52
2018-12-17T21:12:43.440Z,75.48
2018-12-17T21:15:12.754Z,75.42
2018-12-17T21:17:41.606Z,75.22
2018-12-17T21:20:10.716Z,75.24
2018-12-17T21:22:39.896Z,75.07
2018-12-17T21:25:08.973Z,74.96
2018-12-17T21:27:38.096Z,74.82
2018-12-17T21:30:07.296Z,74.60
2018-12-17T21:32:36.361Z,74.63
2018-12-17T21:35:05.439Z,74.34
2018-12-17T21:37:34.504Z,74.22
2018-12-17T21:40:03.761Z,74.00
2018-12-17T21:42:32.864Z,73.83
2018-12-17T21:45:02.065Z,73.65
2018-12-17T21:47:31.150Z,73.68
2018-12-17T21:50:00.524Z,73.74
2018-12-17T21:52:29.584Z,73.66
2018-12-17T21:54:58.652Z,73.78
2018-12-17T21:57:27.734Z,73.59
2018-12-17T21:59:56.800Z,73.47
2018-12-17T22:02:25.861Z,73.14
2018-12-17T22:04:55.050Z,73.16
2018-12-17T22:07:24.114Z,73.11
2018-12-17T22:09:53.179Z,73.18
2018-12-17T22:12:23.141Z,73.27
2018-12-17T22:14:52.204Z,73.28
2018-12-17T22:17:21.284Z,73.30
2018-12-17T22:19:50.368Z,73.28
2018-12-17T22:22:19.421Z,73.23
2018-12-17T22:24:48.487Z,73.13
2018-12-17T22:27:17.579Z,73.16
2018-12-17T22:29:46.629Z,73.13
2018-12-17T22:32:15.734Z,73.17
2018-12-17T22:34:44.894Z,72.89
2018-12-17T22:37:13.948Z,72.60
2018-12-17T22:39:43.014Z,72.36
2018-12-17T22:42:12.176Z,72.27
2018-12-17T22:44:41.237Z,72.14
2018-12-17T22:47:10.283Z,71.90
2018-12-17T22:49:39.378Z,71.19
2018-12-17T22:52:08.434Z,71.31
2018-12-17T22:54:37.492Z,70.91
2018-12-17T22:57:06.594Z,71.20
2018-12-17T22:59:35.664Z,71.31
2018-12-17T23:02:04.729Z,71.24
2018-12-17T23:04:35.171Z,71.28
2018-12-17T23:07:04.285Z,71.14
2018-12-17T23:09:44.972Z,71.20
2018-12-17T23:12:25.672Z,71.10
2018-12-17T23:15:06.318Z,71.35
2018-12-17T23:17:40.676Z,71.49
2018-12-17T23:20:09.988Z,71.48
2018-12-17T23:22:38.818Z,71.15
2018-12-17T23:25:07.907Z,70.98
2018-12-17T23:27:36.973Z,71.31
2018-12-17T23:30:06.039Z,71.46
2018-12-17T23:32:35.102Z,71.46
2018-12-17T23:35:04.225Z,71.49
2018-12-17T23:37:33.305Z,71.56
2018-12-17T23:40:02.383Z,71.68
2018-12-17T23:42:31.451Z,71.80
2018-12-17T23:45:00.514Z,71.97
2018-12-17T23:47:29.574Z,71.95
2018-12-17T23:49:58.652Z,71.97
2018-12-17T23:52:27.712Z,71.92
2018-12-17T23:54:56.773Z,72.01
2018-12-17T23:57:25.865Z,72.14
2018-12-17T23:59:54.987Z,72.24
